sensor_id;sensor_type;location;lat;lon;timestamp;P1;durP1;ratioP1;P2;durP2;ratioP2
12774;SDS011;6451;42.630;23.382;2022-10-16T00:01:12;8.83;;;6.37;;
12774;SDS011;6451;42.630;23.382;2022-10-16T00:03:41;8.37;;;7.40;;
12774;SDS011;6451;42.630;23.382;2022-10-16T00:06:09;11.57;;;7.73;;
12774;SDS011;6451;42.630;23.382;2022-10-16T00:08:37;9.13;;;7.37;;
12774;SDS011;6451;42.630;23.382;2022-10-16T00:11:06;10.37;;;8.03;;
12774;SDS011;6451;42.630;23.382;2022-10-16T00:13:35;12.70;;;7.73;;
12774;SDS011;6451;42.630;23.382;2022-10-16T00:16:03;9.13;;;7.60;;
12774;SDS011;6451;42.630;23.382;2022-10-16T00:18:32;10.47;;;7.60;;
12774;SDS011;6451;42.630;23.382;2022-10-16T00:21:02;10.00;;;7.50;;
12774;SDS011;6451;42.630;23.382;2022-10-16T00:23:31;14.03;;;7.50;;
12774;SDS011;6451;42.630;23.382;2022-10-16T00:25:59;10.67;;;7.70;;
12774;SDS011;6451;42.630;23.382;2022-10-16T00:28:28;12.37;;;7.77;;
12774;SDS011;6451;42.630;23.382;2022-10-16T00:30:55;12.07;;;8.07;;
12774;SDS011;6451;42.630;23.382;2022-10-16T00:33:22;12.57;;;8.70;;
12774;SDS011;6451;42.630;23.382;2022-10-16T00:35:51;14.83;;;9.03;;
12774;SDS011;6451;42.630;23.382;2022-10-16T00:38:18;12.23;;;9.10;;
12774;SDS011;6451;42.630;23.382;2022-10-16T00:40:45;8.73;;;7.83;;
12774;SDS011;6451;42.630;23.382;2022-10-16T00:43:13;12.77;;;9.73;;
12774;SDS011;6451;42.630;23.382;2022-10-16T00:45:41;12.97;;;8.67;;
12774;SDS011;6451;42.630;23.382;2022-10-16T00:48:10;10.07;;;7.63;;
12774;SDS011;6451;42.630;23.382;2022-10-16T00:50:39;9.73;;;7.50;;
12774;SDS011;6451;42.630;23.382;2022-10-16T00:53:10;9.13;;;7.47;;
12774;SDS011;6451;42.630;23.382;2022-10-16T00:55:38;10.27;;;8.23;;
12774;SDS011;6451;42.630;23.382;2022-10-16T00:58:05;9.13;;;7.40;;
12774;SDS011;6451;42.630;23.382;2022-10-16T01:00:33;9.33;;;7.43;;
12774;SDS011;6451;42.630;23.382;2022-10-16T01:03:00;7.83;;;6.90;;
12774;SDS011;6451;42.630;23.382;2022-10-16T01:05:30;8.30;;;6.53;;
12774;SDS011;6451;42.630;23.382;2022-10-16T01:08:07;7.27;;;6.43;;
12774;SDS011;6451;42.630;23.382;2022-10-16T01:10:43;7.20;;;6.43;;
12774;SDS011;6451;42.630;23.382;2022-10-16T01:13:21;8.83;;;6.57;;
12774;SDS011;6451;42.630;23.382;2022-10-16T01:15:53;7.10;;;5.93;;
12774;SDS011;6451;42.630;23.382;2022-10-16T01:18:24;7.47;;;6.10;;
12774;SDS011;6451;42.630;23.382;2022-10-16T01:20:58;5.90;;;5.30;;
12774;SDS011;6451;42.630;23.382;2022-10-16T01:23:31;8.13;;;5.67;;
12774;SDS011;6451;42.630;23.382;2022-10-16T01:26:13;7.97;;;5.93;;
12774;SDS011;6451;42.630;23.382;2022-10-16T01:28:52;6.77;;;5.40;;
12774;SDS011;6451;42.630;23.382;2022-10-16T01:31:24;7.57;;;5.00;;
12774;SDS011;6451;42.630;23.382;2022-10-16T01:33:56;8.23;;;5.37;;
12774;SDS011;6451;42.630;23.382;2022-10-16T01:36:28;7.17;;;5.07;;
12774;SDS011;6451;42.630;23.382;2022-10-16T01:39:02;7.00;;;5.67;;
12774;SDS011;6451;42.630;23.382;2022-10-16T01:41:36;7.50;;;5.70;;
12774;SDS011;6451;42.630;23.382;2022-10-16T01:44:08;7.60;;;5.20;;
12774;SDS011;6451;42.630;23.382;2022-10-16T01:46:39;6.33;;;5.43;;
12774;SDS011;6451;42.630;23.382;2022-10-16T01:49:09;9.13;;;5.60;;
12774;SDS011;6451;42.630;23.382;2022-10-16T01:51:38;7.27;;;5.87;;
12774;SDS011;6451;42.630;23.382;2022-10-16T01:54:06;8.67;;;5.87;;
12774;SDS011;6451;42.630;23.382;2022-10-16T01:56:34;6.23;;;5.37;;
12774;SDS011;6451;42.630;23.382;2022-10-16T01:59:04;6.60;;;5.83;;
12774;SDS011;6451;42.630;23.382;2022-10-16T02:01:35;5.87;;;5.33;;
12774;SDS011;6451;42.630;23.382;2022-10-16T02:04:07;5.77;;;5.23;;
12774;SDS011;6451;42.630;23.382;2022-10-16T02:06:39;7.70;;;5.27;;
12774;SDS011;6451;42.630;23.382;2022-10-16T02:09:07;8.57;;;5.73;;
12774;SDS011;6451;42.630;23.382;2022-10-16T02:11:35;6.53;;;5.43;;
12774;SDS011;6451;42.630;23.382;2022-10-16T02:14:03;8.63;;;5.40;;
12774;SDS011;6451;42.630;23.382;2022-10-16T02:16:37;10.70;;;5.73;;
12774;SDS011;6451;42.630;23.382;2022-10-16T02:19:05;6.97;;;5.40;;
12774;SDS011;6451;42.630;23.382;2022-10-16T02:21:34;7.97;;;5.97;;
12774;SDS011;6451;42.630;23.382;2022-10-16T02:24:08;9.90;;;5.70;;
12774;SDS011;6451;42.630;23.382;2022-10-16T02:26:44;7.30;;;5.83;;
12774;SDS011;6451;42.630;23.382;2022-10-16T02:29:18;6.20;;;5.57;;
12774;SDS011;6451;42.630;23.382;2022-10-16T02:31:52;7.10;;;6.10;;
12774;SDS011;6451;42.630;23.382;2022-10-16T02:34:21;8.23;;;6.20;;
12774;SDS011;6451;42.630;23.382;2022-10-16T02:36:51;7.43;;;6.03;;
12774;SDS011;6451;42.630;23.382;2022-10-16T02:39:20;8.53;;;6.27;;
12774;SDS011;6451;42.630;23.382;2022-10-16T02:41:47;8.30;;;6.60;;
12774;SDS011;6451;42.630;23.382;2022-10-16T02:44:14;8.60;;;6.60;;
12774;SDS011;6451;42.630;23.382;2022-10-16T02:46:41;7.27;;;6.57;;
12774;SDS011;6451;42.630;23.382;2022-10-16T02:49:09;8.80;;;6.60;;
12774;SDS011;6451;42.630;23.382;2022-10-16T02:51:36;7.63;;;6.70;;
12774;SDS011;6451;42.630;23.382;2022-10-16T02:54:03;7.80;;;6.93;;
12774;SDS011;6451;42.630;23.382;2022-10-16T02:56:30;7.50;;;6.70;;
12774;SDS011;6451;42.630;23.382;2022-10-16T02:58:57;8.00;;;7.10;;
12774;SDS011;6451;42.630;23.382;2022-10-16T03:01:24;10.43;;;7.63;;
12774;SDS011;6451;42.630;23.382;2022-10-16T03:03:51;8.33;;;7.53;;
12774;SDS011;6451;42.630;23.382;2022-10-16T03:06:19;8.47;;;7.67;;
12774;SDS011;6451;42.630;23.382;2022-10-16T03:08:46;9.87;;;7.53;;
12774;SDS011;6451;42.630;23.382;2022-10-16T03:11:13;13.10;;;7.40;;
12774;SDS011;6451;42.630;23.382;2022-10-16T03:13:40;9.23;;;7.40;;
12774;SDS011;6451;42.630;23.382;2022-10-16T03:16:07;9.83;;;8.23;;
12774;SDS011;6451;42.630;23.382;2022-10-16T03:18:34;9.57;;;7.90;;
12774;SDS011;6451;42.630;23.382;2022-10-16T03:21:02;9.07;;;8.17;;
12774;SDS011;6451;42.630;23.382;2022-10-16T03:23:30;9.33;;;8.33;;
12774;SDS011;6451;42.630;23.382;2022-10-16T03:25:57;12.27;;;8.40;;
12774;SDS011;6451;42.630;23.382;2022-10-16T03:28:24;8.87;;;7.93;;
12774;SDS011;6451;42.630;23.382;2022-10-16T03:30:52;9.40;;;8.33;;
12774;SDS011;6451;42.630;23.382;2022-10-16T03:33:19;11.03;;;8.67;;
12774;SDS011;6451;42.630;23.382;2022-10-16T03:35:50;11.23;;;8.60;;
12774;SDS011;6451;42.630;23.382;2022-10-16T03:38:18;8.83;;;7.80;;
12774;SDS011;6451;42.630;23.382;2022-10-16T03:40:46;10.93;;;8.53;;
12774;SDS011;6451;42.630;23.382;2022-10-16T03:43:13;9.47;;;7.60;;
12774;SDS011;6451;42.630;23.382;2022-10-16T03:45:40;9.53;;;7.33;;
12774;SDS011;6451;42.630;23.382;2022-10-16T03:48:07;8.43;;;7.47;;
12774;SDS011;6451;42.630;23.382;2022-10-16T03:50:35;8.97;;;7.40;;
12774;SDS011;6451;42.630;23.382;2022-10-16T03:53:02;10.23;;;7.40;;
12774;SDS011;6451;42.630;23.382;2022-10-16T03:55:29;11.40;;;8.30;;
12774;SDS011;6451;42.630;23.382;2022-10-16T03:57:57;11.67;;;7.70;;
12774;SDS011;6451;42.630;23.382;2022-10-16T04:00:24;11.33;;;7.83;;
12774;SDS011;6451;42.630;23.382;2022-10-16T04:02:51;9.73;;;8.47;;
12774;SDS011;6451;42.630;23.382;2022-10-16T04:05:19;9.80;;;8.43;;
12774;SDS011;6451;42.630;23.382;2022-10-16T04:07:46;11.20;;;8.97;;
12774;SDS011;6451;42.630;23.382;2022-10-16T04:10:12;14.83;;;8.57;;
12774;SDS011;6451;42.630;23.382;2022-10-16T04:12:39;10.43;;;8.50;;
12774;SDS011;6451;42.630;23.382;2022-10-16T04:15:09;9.67;;;8.30;;
12774;SDS011;6451;42.630;23.382;2022-10-16T04:17:36;12.13;;;9.30;;
12774;SDS011;6451;42.630;23.382;2022-10-16T04:20:03;8.87;;;7.97;;
12774;SDS011;6451;42.630;23.382;2022-10-16T04:22:31;9.23;;;8.33;;
12774;SDS011;6451;42.630;23.382;2022-10-16T04:24:59;11.47;;;8.73;;
12774;SDS011;6451;42.630;23.382;2022-10-16T04:27:31;11.30;;;8.40;;
12774;SDS011;6451;42.630;23.382;2022-10-16T04:29:58;9.17;;;7.70;;
12774;SDS011;6451;42.630;23.382;2022-10-16T04:32:27;8.37;;;7.27;;
12774;SDS011;6451;42.630;23.382;2022-10-16T04:34:54;8.73;;;7.37;;
12774;SDS011;6451;42.630;23.382;2022-10-16T04:37:23;9.20;;;7.83;;
12774;SDS011;6451;42.630;23.382;2022-10-16T04:39:50;8.90;;;7.93;;
12774;SDS011;6451;42.630;23.382;2022-10-16T04:42:17;9.27;;;7.37;;
12774;SDS011;6451;42.630;23.382;2022-10-16T04:44:44;8.73;;;7.87;;
12774;SDS011;6451;42.630;23.382;2022-10-16T04:47:11;9.70;;;8.30;;
12774;SDS011;6451;42.630;23.382;2022-10-16T04:49:39;9.23;;;8.33;;
12774;SDS011;6451;42.630;23.382;2022-10-16T04:52:06;11.83;;;8.60;;
12774;SDS011;6451;42.630;23.382;2022-10-16T04:54:35;11.60;;;8.23;;
12774;SDS011;6451;42.630;23.382;2022-10-16T04:57:02;9.43;;;8.43;;
12774;SDS011;6451;42.630;23.382;2022-10-16T04:59:31;10.27;;;8.20;;
12774;SDS011;6451;42.630;23.382;2022-10-16T05:01:57;10.97;;;8.17;;
12774;SDS011;6451;42.630;23.382;2022-10-16T05:04:24;9.40;;;8.30;;
12774;SDS011;6451;42.630;23.382;2022-10-16T05:06:53;9.80;;;7.93;;
12774;SDS011;6451;42.630;23.382;2022-10-16T05:09:19;8.40;;;7.53;;
12774;SDS011;6451;42.630;23.382;2022-10-16T05:11:46;8.83;;;7.77;;
12774;SDS011;6451;42.630;23.382;2022-10-16T05:14:13;8.73;;;7.53;;
12774;SDS011;6451;42.630;23.382;2022-10-16T05:16:40;9.03;;;7.47;;
12774;SDS011;6451;42.630;23.382;2022-10-16T05:19:07;8.77;;;7.60;;
12774;SDS011;6451;42.630;23.382;2022-10-16T05:21:34;9.50;;;8.03;;
12774;SDS011;6451;42.630;23.382;2022-10-16T05:24:02;9.27;;;8.20;;
12774;SDS011;6451;42.630;23.382;2022-10-16T05:26:29;10.13;;;7.80;;
12774;SDS011;6451;42.630;23.382;2022-10-16T05:28:56;8.53;;;7.60;;
12774;SDS011;6451;42.630;23.382;2022-10-16T05:31:23;8.57;;;7.57;;
12774;SDS011;6451;42.630;23.382;2022-10-16T05:33:50;9.37;;;8.23;;
12774;SDS011;6451;42.630;23.382;2022-10-16T05:36:17;8.53;;;7.70;;
12774;SDS011;6451;42.630;23.382;2022-10-16T05:38:45;8.30;;;7.20;;
12774;SDS011;6451;42.630;23.382;2022-10-16T05:41:13;7.80;;;6.93;;
12774;SDS011;6451;42.630;23.382;2022-10-16T05:43:40;7.90;;;7.10;;
12774;SDS011;6451;42.630;23.382;2022-10-16T05:46:07;10.03;;;7.30;;
12774;SDS011;6451;42.630;23.382;2022-10-16T05:48:35;8.43;;;7.23;;
12774;SDS011;6451;42.630;23.382;2022-10-16T05:51:02;8.03;;;7.23;;
12774;SDS011;6451;42.630;23.382;2022-10-16T05:53:33;10.53;;;7.60;;
12774;SDS011;6451;42.630;23.382;2022-10-16T05:56:01;8.90;;;6.83;;
12774;SDS011;6451;42.630;23.382;2022-10-16T05:58:31;8.53;;;7.63;;
12774;SDS011;6451;42.630;23.382;2022-10-16T06:01:01;8.20;;;7.17;;
12774;SDS011;6451;42.630;23.382;2022-10-16T06:03:30;11.20;;;7.17;;
12774;SDS011;6451;42.630;23.382;2022-10-16T06:05:57;7.97;;;7.13;;
12774;SDS011;6451;42.630;23.382;2022-10-16T06:08:24;8.60;;;7.40;;
12774;SDS011;6451;42.630;23.382;2022-10-16T06:10:59;7.97;;;7.17;;
12774;SDS011;6451;42.630;23.382;2022-10-16T06:13:28;11.30;;;7.83;;
12774;SDS011;6451;42.630;23.382;2022-10-16T06:15:57;7.90;;;6.87;;
12774;SDS011;6451;42.630;23.382;2022-10-16T06:18:25;9.43;;;6.77;;
12774;SDS011;6451;42.630;23.382;2022-10-16T06:20:52;7.97;;;7.17;;
12774;SDS011;6451;42.630;23.382;2022-10-16T06:23:19;8.23;;;6.93;;
12774;SDS011;6451;42.630;23.382;2022-10-16T06:25:46;7.73;;;6.80;;
12774;SDS011;6451;42.630;23.382;2022-10-16T06:28:13;9.27;;;6.83;;
12774;SDS011;6451;42.630;23.382;2022-10-16T06:30:41;11.13;;;6.70;;
12774;SDS011;6451;42.630;23.382;2022-10-16T06:33:10;9.07;;;7.30;;
12774;SDS011;6451;42.630;23.382;2022-10-16T06:35:37;7.50;;;6.80;;
12774;SDS011;6451;42.630;23.382;2022-10-16T06:38:04;8.50;;;6.90;;
12774;SDS011;6451;42.630;23.382;2022-10-16T06:40:31;7.57;;;6.23;;
12774;SDS011;6451;42.630;23.382;2022-10-16T06:42:58;7.17;;;6.00;;
12774;SDS011;6451;42.630;23.382;2022-10-16T06:45:25;6.80;;;6.03;;
12774;SDS011;6451;42.630;23.382;2022-10-16T06:47:52;7.60;;;6.80;;
12774;SDS011;6451;42.630;23.382;2022-10-16T06:50:20;8.10;;;6.33;;
12774;SDS011;6451;42.630;23.382;2022-10-16T06:52:47;7.47;;;6.00;;
12774;SDS011;6451;42.630;23.382;2022-10-16T06:55:15;8.03;;;6.70;;
12774;SDS011;6451;42.630;23.382;2022-10-16T06:57:42;9.40;;;7.40;;
12774;SDS011;6451;42.630;23.382;2022-10-16T07:00:09;9.77;;;7.67;;
12774;SDS011;6451;42.630;23.382;2022-10-16T07:02:36;10.20;;;8.47;;
12774;SDS011;6451;42.630;23.382;2022-10-16T07:05:03;12.70;;;9.53;;
12774;SDS011;6451;42.630;23.382;2022-10-16T07:07:32;12.87;;;9.33;;
12774;SDS011;6451;42.630;23.382;2022-10-16T07:09:59;11.07;;;8.67;;
12774;SDS011;6451;42.630;23.382;2022-10-16T07:12:26;9.73;;;8.73;;
12774;SDS011;6451;42.630;23.382;2022-10-16T07:14:53;12.80;;;9.07;;
12774;SDS011;6451;42.630;23.382;2022-10-16T07:17:20;14.77;;;9.07;;
12774;SDS011;6451;42.630;23.382;2022-10-16T07:19:47;13.00;;;9.13;;
12774;SDS011;6451;42.630;23.382;2022-10-16T07:22:15;13.37;;;8.80;;
12774;SDS011;6451;42.630;23.382;2022-10-16T07:24:43;12.17;;;8.80;;
12774;SDS011;6451;42.630;23.382;2022-10-16T07:27:10;11.10;;;9.20;;
12774;SDS011;6451;42.630;23.382;2022-10-16T07:29:37;10.87;;;9.10;;
12774;SDS011;6451;42.630;23.382;2022-10-16T07:32:04;11.60;;;8.43;;
12774;SDS011;6451;42.630;23.382;2022-10-16T07:34:31;11.47;;;10.00;;
12774;SDS011;6451;42.630;23.382;2022-10-16T07:36:58;14.33;;;9.07;;
12774;SDS011;6451;42.630;23.382;2022-10-16T07:39:25;15.73;;;9.27;;
12774;SDS011;6451;42.630;23.382;2022-10-16T07:41:54;15.43;;;9.40;;
12774;SDS011;6451;42.630;23.382;2022-10-16T07:44:21;14.70;;;8.80;;
12774;SDS011;6451;42.630;23.382;2022-10-16T07:46:48;13.00;;;9.13;;
12774;SDS011;6451;42.630;23.382;2022-10-16T07:49:15;16.07;;;9.33;;
12774;SDS011;6451;42.630;23.382;2022-10-16T07:51:41;11.97;;;8.67;;
12774;SDS011;6451;42.630;23.382;2022-10-16T07:54:08;11.77;;;9.00;;
12774;SDS011;6451;42.630;23.382;2022-10-16T07:56:35;10.97;;;8.80;;
12774;SDS011;6451;42.630;23.382;2022-10-16T07:59:04;12.57;;;8.23;;
12774;SDS011;6451;42.630;23.382;2022-10-16T08:01:31;14.43;;;8.90;;
12774;SDS011;6451;42.630;23.382;2022-10-16T08:03:59;15.13;;;9.03;;
12774;SDS011;6451;42.630;23.382;2022-10-16T08:06:25;10.60;;;8.27;;
12774;SDS011;6451;42.630;23.382;2022-10-16T08:08:52;13.97;;;8.10;;
12774;SDS011;6451;42.630;23.382;2022-10-16T08:11:19;10.10;;;7.50;;
12774;SDS011;6451;42.630;23.382;2022-10-16T08:13:46;10.10;;;8.10;;
12774;SDS011;6451;42.630;23.382;2022-10-16T08:16:15;10.87;;;8.37;;
12774;SDS011;6451;42.630;23.382;2022-10-16T08:18:42;11.67;;;7.47;;
12774;SDS011;6451;42.630;23.382;2022-10-16T08:21:11;9.23;;;7.47;;
12774;SDS011;6451;42.630;23.382;2022-10-16T08:23:40;10.37;;;7.50;;
12774;SDS011;6451;42.630;23.382;2022-10-16T08:26:09;11.80;;;7.00;;
12774;SDS011;6451;42.630;23.382;2022-10-16T08:28:36;8.90;;;7.07;;
12774;SDS011;6451;42.630;23.382;2022-10-16T08:31:07;10.10;;;6.70;;
12774;SDS011;6451;42.630;23.382;2022-10-16T08:33:36;8.90;;;6.50;;
12774;SDS011;6451;42.630;23.382;2022-10-16T08:36:05;9.60;;;6.40;;
12774;SDS011;6451;42.630;23.382;2022-10-16T08:38:33;6.60;;;5.93;;
12774;SDS011;6451;42.630;23.382;2022-10-16T08:41:10;13.50;;;6.13;;
12774;SDS011;6451;42.630;23.382;2022-10-16T08:44:01;10.70;;;5.77;;
12774;SDS011;6451;42.630;23.382;2022-10-16T08:46:42;9.37;;;5.80;;
12774;SDS011;6451;42.630;23.382;2022-10-16T08:49:19;6.20;;;5.07;;
12774;SDS011;6451;42.630;23.382;2022-10-16T08:51:46;8.38;;;5.25;;
12774;SDS011;6451;42.630;23.382;2022-10-16T08:54:18;7.38;;;4.63;;
12774;SDS011;6451;42.630;23.382;2022-10-16T08:56:54;7.32;;;4.50;;
12774;SDS011;6451;42.630;23.382;2022-10-16T08:59:23;5.97;;;5.10;;
12774;SDS011;6451;42.630;23.382;2022-10-16T09:04:31;6.97;;;4.35;;
12774;SDS011;6451;42.630;23.382;2022-10-16T09:07:16;5.05;;;4.15;;
12774;SDS011;6451;42.630;23.382;2022-10-16T09:09:51;5.38;;;4.53;;
12774;SDS011;6451;42.630;23.382;2022-10-16T09:12:28;6.55;;;4.30;;
12774;SDS011;6451;42.630;23.382;2022-10-16T09:15:05;6.10;;;4.18;;
12774;SDS011;6451;42.630;23.382;2022-10-16T09:17:42;5.60;;;4.20;;
12774;SDS011;6451;42.630;23.382;2022-10-16T09:23:14;4.10;;;3.58;;
12774;SDS011;6451;42.630;23.382;2022-10-16T09:25:43;5.22;;;3.90;;
12774;SDS011;6451;42.630;23.382;2022-10-16T09:28:13;4.30;;;3.85;;
12774;SDS011;6451;42.630;23.382;2022-10-16T09:30:41;7.28;;;3.90;;
12774;SDS011;6451;42.630;23.382;2022-10-16T09:33:09;3.85;;;3.28;;
12774;SDS011;6451;42.630;23.382;2022-10-16T09:35:40;4.97;;;3.58;;
12774;SDS011;6451;42.630;23.382;2022-10-16T09:38:09;3.95;;;3.55;;
12774;SDS011;6451;42.630;23.382;2022-10-16T09:40:49;6.32;;;4.10;;
12774;SDS011;6451;42.630;23.382;2022-10-16T09:43:20;6.35;;;3.97;;
12774;SDS011;6451;42.630;23.382;2022-10-16T09:45:53;4.80;;;3.90;;
12774;SDS011;6451;42.630;23.382;2022-10-16T09:48:21;5.97;;;4.22;;
12774;SDS011;6451;42.630;23.382;2022-10-16T09:50:56;4.63;;;3.70;;
12774;SDS011;6451;42.630;23.382;2022-10-16T09:53:25;4.40;;;3.70;;
12774;SDS011;6451;42.630;23.382;2022-10-16T09:56:03;5.40;;;3.70;;
12774;SDS011;6451;42.630;23.382;2022-10-16T09:58:31;4.38;;;3.80;;
12774;SDS011;6451;42.630;23.382;2022-10-16T10:01:00;4.60;;;3.60;;
12774;SDS011;6451;42.630;23.382;2022-10-16T10:03:34;6.53;;;3.78;;
12774;SDS011;6451;42.630;23.382;2022-10-16T10:06:14;5.80;;;3.85;;
12774;SDS011;6451;42.630;23.382;2022-10-16T10:08:54;4.88;;;3.80;;
12774;SDS011;6451;42.630;23.382;2022-10-16T10:14:26;7.22;;;4.07;;
12774;SDS011;6451;42.630;23.382;2022-10-16T10:19:50;4.53;;;4.00;;
12774;SDS011;6451;42.630;23.382;2022-10-16T10:22:25;4.72;;;4.10;;
12774;SDS011;6451;42.630;23.382;2022-10-16T10:25:07;4.53;;;4.13;;
12774;SDS011;6451;42.630;23.382;2022-10-16T10:27:48;6.07;;;4.45;;
12774;SDS011;6451;42.630;23.382;2022-10-16T10:30:27;4.43;;;4.03;;
12774;SDS011;6451;42.630;23.382;2022-10-16T10:33:07;5.00;;;3.97;;
12774;SDS011;6451;42.630;23.382;2022-10-16T10:35:44;6.50;;;4.40;;
12774;SDS011;6451;42.630;23.382;2022-10-16T10:38:23;5.40;;;4.28;;
12774;SDS011;6451;42.630;23.382;2022-10-16T10:41:00;4.32;;;3.90;;
12774;SDS011;6451;42.630;23.382;2022-10-16T10:43:45;4.68;;;3.70;;
12774;SDS011;6451;42.630;23.382;2022-10-16T10:46:23;6.10;;;3.90;;
12774;SDS011;6451;42.630;23.382;2022-10-16T10:49:03;4.72;;;4.10;;
12774;SDS011;6451;42.630;23.382;2022-10-16T10:51:44;5.65;;;3.45;;
12774;SDS011;6451;42.630;23.382;2022-10-16T10:54:22;4.60;;;4.10;;
12774;SDS011;6451;42.630;23.382;2022-10-16T10:57:00;5.22;;;3.45;;
12774;SDS011;6451;42.630;23.382;2022-10-16T11:02:30;5.03;;;3.67;;
12774;SDS011;6451;42.630;23.382;2022-10-16T11:08:00;5.05;;;3.53;;
12774;SDS011;6451;42.630;23.382;2022-10-16T11:10:33;4.80;;;3.33;;
12774;SDS011;6451;42.630;23.382;2022-10-16T11:13:10;3.25;;;2.95;;
12774;SDS011;6451;42.630;23.382;2022-10-16T11:15:46;4.07;;;2.70;;
12774;SDS011;6451;42.630;23.382;2022-10-16T11:18:16;3.13;;;2.63;;
12774;SDS011;6451;42.630;23.382;2022-10-16T11:20:47;3.90;;;2.65;;
12774;SDS011;6451;42.630;23.382;2022-10-16T11:23:21;3.65;;;2.35;;
12774;SDS011;6451;42.630;23.382;2022-10-16T11:25:54;5.47;;;2.38;;
12774;SDS011;6451;42.630;23.382;2022-10-16T11:28:24;2.60;;;2.40;;
12774;SDS011;6451;42.630;23.382;2022-10-16T11:30:59;3.03;;;2.42;;
12774;SDS011;6451;42.630;23.382;2022-10-16T11:33:32;2.38;;;2.13;;
12774;SDS011;6451;42.630;23.382;2022-10-16T11:36:06;2.47;;;2.28;;
12774;SDS011;6451;42.630;23.382;2022-10-16T11:38:41;3.47;;;2.40;;
12774;SDS011;6451;42.630;23.382;2022-10-16T11:41:18;3.40;;;2.50;;
12774;SDS011;6451;42.630;23.382;2022-10-16T11:43:50;3.05;;;2.40;;
12774;SDS011;6451;42.630;23.382;2022-10-16T11:46:26;2.47;;;2.28;;
12774;SDS011;6451;42.630;23.382;2022-10-16T11:48:57;2.80;;;2.50;;
12774;SDS011;6451;42.630;23.382;2022-10-16T11:51:32;2.55;;;2.35;;
12774;SDS011;6451;42.630;23.382;2022-10-16T11:54:04;4.25;;;2.90;;
12774;SDS011;6451;42.630;23.382;2022-10-16T11:56:43;3.45;;;2.40;;
12774;SDS011;6451;42.630;23.382;2022-10-16T11:59:14;3.15;;;2.63;;
12774;SDS011;6451;42.630;23.382;2022-10-16T12:01:49;3.28;;;2.67;;
12774;SDS011;6451;42.630;23.382;2022-10-16T14:38:17;4.75;;;2.63;;
12774;SDS011;6451;42.630;23.382;2022-10-16T14:40:46;5.40;;;2.50;;
12774;SDS011;6451;42.630;23.382;2022-10-16T14:43:17;3.30;;;2.40;;
12774;SDS011;6451;42.630;23.382;2022-10-16T14:45:50;2.88;;;2.40;;
12774;SDS011;6451;42.630;23.382;2022-10-16T14:48:19;10.85;;;2.80;;
12774;SDS011;6451;42.630;23.382;2022-10-16T14:50:46;4.05;;;2.45;;
12774;SDS011;6451;42.630;23.382;2022-10-16T14:53:13;3.78;;;2.83;;
12774;SDS011;6451;42.630;23.382;2022-10-16T14:55:42;4.28;;;2.78;;
12774;SDS011;6451;42.630;23.382;2022-10-16T14:58:10;2.80;;;2.35;;
12774;SDS011;6451;42.630;23.382;2022-10-16T15:00:41;5.97;;;2.75;;
12774;SDS011;6451;42.630;23.382;2022-10-16T15:03:08;3.78;;;2.58;;
12774;SDS011;6451;42.630;23.382;2022-10-16T15:05:35;5.85;;;2.92;;
12774;SDS011;6451;42.630;23.382;2022-10-16T15:08:02;3.67;;;2.50;;
12774;SDS011;6451;42.630;23.382;2022-10-16T15:10:33;6.15;;;2.45;;
12774;SDS011;6451;42.630;23.382;2022-10-16T15:13:04;4.07;;;2.38;;
12774;SDS011;6451;42.630;23.382;2022-10-16T15:15:35;3.95;;;2.50;;
12774;SDS011;6451;42.630;23.382;2022-10-16T15:18:04;3.58;;;2.50;;
12774;SDS011;6451;42.630;23.382;2022-10-16T15:20:32;6.40;;;3.00;;
12774;SDS011;6451;42.630;23.382;2022-10-16T15:23:00;6.15;;;2.92;;
12774;SDS011;6451;42.630;23.382;2022-10-16T15:25:31;3.83;;;2.63;;
12774;SDS011;6451;42.630;23.382;2022-10-16T15:28:01;8.98;;;2.97;;
12774;SDS011;6451;42.630;23.382;2022-10-16T15:30:29;3.92;;;2.72;;
12774;SDS011;6451;42.630;23.382;2022-10-16T15:32:57;10.60;;;3.50;;
12774;SDS011;6451;42.630;23.382;2022-10-16T15:35:24;5.57;;;3.17;;
12774;SDS011;6451;42.630;23.382;2022-10-16T15:37:51;3.35;;;2.88;;
12774;SDS011;6451;42.630;23.382;2022-10-16T15:40:18;2.92;;;2.63;;
12774;SDS011;6451;42.630;23.382;2022-10-16T15:42:47;4.97;;;2.55;;
12774;SDS011;6451;42.630;23.382;2022-10-16T15:45:17;3.40;;;2.60;;
12774;SDS011;6451;42.630;23.382;2022-10-16T15:47:44;3.30;;;2.88;;
12774;SDS011;6451;42.630;23.382;2022-10-16T15:50:12;7.10;;;3.03;;
12774;SDS011;6451;42.630;23.382;2022-10-16T15:52:40;4.65;;;2.78;;
12774;SDS011;6451;42.630;23.382;2022-10-16T15:55:08;9.32;;;4.40;;
12774;SDS011;6451;42.630;23.382;2022-10-16T15:57:36;8.50;;;4.55;;
12774;SDS011;6451;42.630;23.382;2022-10-16T16:00:08;8.05;;;4.55;;
12774;SDS011;6451;42.630;23.382;2022-10-16T16:02:37;5.40;;;4.63;;
12774;SDS011;6451;42.630;23.382;2022-10-16T16:05:05;7.88;;;4.70;;
12774;SDS011;6451;42.630;23.382;2022-10-16T16:07:34;5.93;;;4.30;;
12774;SDS011;6451;42.630;23.382;2022-10-16T16:10:02;6.50;;;4.40;;
12774;SDS011;6451;42.630;23.382;2022-10-16T16:12:29;7.35;;;4.53;;
12774;SDS011;6451;42.630;23.382;2022-10-16T16:14:57;8.00;;;4.63;;
12774;SDS011;6451;42.630;23.382;2022-10-16T16:17:27;5.57;;;4.10;;
12774;SDS011;6451;42.630;23.382;2022-10-16T16:19:53;6.97;;;4.45;;
12774;SDS011;6451;42.630;23.382;2022-10-16T16:22:21;7.57;;;4.28;;
12774;SDS011;6451;42.630;23.382;2022-10-16T16:24:49;10.13;;;4.85;;
12774;SDS011;6451;42.630;23.382;2022-10-16T16:27:16;6.85;;;4.32;;
12774;SDS011;6451;42.630;23.382;2022-10-16T16:29:44;8.05;;;4.70;;
12774;SDS011;6451;42.630;23.382;2022-10-16T16:32:11;7.22;;;4.95;;
12774;SDS011;6451;42.630;23.382;2022-10-16T16:34:40;17.23;;;5.83;;
12774;SDS011;6451;42.630;23.382;2022-10-16T16:37:07;9.67;;;5.00;;
12774;SDS011;6451;42.630;23.382;2022-10-16T16:39:34;7.60;;;4.83;;
12774;SDS011;6451;42.630;23.382;2022-10-16T16:42:01;7.23;;;4.73;;
12774;SDS011;6451;42.630;23.382;2022-10-16T16:44:29;10.10;;;4.68;;
12774;SDS011;6451;42.630;23.382;2022-10-16T16:46:56;8.57;;;4.90;;
12774;SDS011;6451;42.630;23.382;2022-10-16T16:49:23;8.80;;;5.43;;
12774;SDS011;6451;42.630;23.382;2022-10-16T16:51:51;11.27;;;5.07;;
12774;SDS011;6451;42.630;23.382;2022-10-16T16:54:19;13.70;;;5.23;;
12774;SDS011;6451;42.630;23.382;2022-10-16T16:56:45;13.27;;;5.97;;
12774;SDS011;6451;42.630;23.382;2022-10-16T16:59:13;9.43;;;6.60;;
12774;SDS011;6451;42.630;23.382;2022-10-16T17:01:43;12.70;;;6.77;;
12774;SDS011;6451;42.630;23.382;2022-10-16T17:04:10;11.47;;;7.00;;
12774;SDS011;6451;42.630;23.382;2022-10-16T17:06:40;10.67;;;6.93;;
12774;SDS011;6451;42.630;23.382;2022-10-16T17:09:10;14.60;;;6.77;;
12774;SDS011;6451;42.630;23.382;2022-10-16T17:11:40;8.53;;;5.57;;
12774;SDS011;6451;42.630;23.382;2022-10-16T17:14:09;9.07;;;5.30;;
12774;SDS011;6451;42.630;23.382;2022-10-16T17:16:37;8.83;;;6.00;;
12774;SDS011;6451;42.630;23.382;2022-10-16T17:19:06;9.00;;;5.87;;
12774;SDS011;6451;42.630;23.382;2022-10-16T17:21:34;10.57;;;7.70;;
12774;SDS011;6451;42.630;23.382;2022-10-16T17:24:01;47.10;;;37.43;;
12774;SDS011;6451;42.630;23.382;2022-10-16T17:26:30;12.37;;;9.73;;
12774;SDS011;6451;42.630;23.382;2022-10-16T17:28:58;12.00;;;7.83;;
12774;SDS011;6451;42.630;23.382;2022-10-16T17:31:27;11.80;;;7.77;;
12774;SDS011;6451;42.630;23.382;2022-10-16T17:33:56;11.13;;;7.70;;
12774;SDS011;6451;42.630;23.382;2022-10-16T17:36:24;11.27;;;7.80;;
12774;SDS011;6451;42.630;23.382;2022-10-16T17:38:53;12.13;;;8.30;;
12774;SDS011;6451;42.630;23.382;2022-10-16T17:41:21;10.33;;;8.07;;
12774;SDS011;6451;42.630;23.382;2022-10-16T17:43:51;11.37;;;8.47;;
12774;SDS011;6451;42.630;23.382;2022-10-16T17:46:18;11.57;;;8.63;;
12774;SDS011;6451;42.630;23.382;2022-10-16T17:48:48;11.53;;;7.83;;